createdAt,value
2023-02-11T00:01:20.808Z,11.23
2023-02-11T00:03:47.951Z,10.38
2023-02-11T00:06:15.306Z,9.57
2023-02-11T00:08:42.982Z,9.98
2023-02-11T00:11:15.150Z,9.70
2023-02-11T00:13:43.562Z,9.82
2023-02-11T00:16:15.490Z,9.68
2023-02-11T00:18:42.782Z,10.18
2023-02-11T00:21:16.294Z,9.82
2023-02-11T00:23:44.339Z,9.85
2023-02-11T00:26:16.536Z,10.00
2023-02-11T00:28:44.679Z,10.40
2023-02-11T00:31:13.388Z,9.98
2023-02-11T00:33:40.766Z,10.13
2023-02-11T00:36:16.717Z,10.02
2023-02-11T00:38:45.404Z,9.65
2023-02-11T00:41:13.713Z,10.35
2023-02-11T00:43:41.591Z,10.43
2023-02-11T00:46:09.464Z,10.93
2023-02-11T00:48:36.812Z,11.35
2023-02-11T00:51:04.548Z,11.20
2023-02-11T00:53:32.836Z,10.88
2023-02-11T00:56:01.238Z,11.18
2023-02-11T00:58:30.567Z,10.18
2023-02-11T01:00:58.195Z,10.25
2023-02-11T01:03:25.859Z,9.73
2023-02-11T01:05:53.496Z,10.32
2023-02-11T01:08:20.956Z,10.73
2023-02-11T01:11:07.648Z,10.93
2023-02-11T01:13:37.337Z,10.50
2023-02-11T01:16:07.878Z,10.48
2023-02-11T01:18:35.433Z,11.20
2023-02-11T01:21:02.516Z,10.90
2023-02-11T01:23:29.599Z,9.90
2023-02-11T01:25:57.502Z,10.27
2023-02-11T01:28:27.453Z,11.40
2023-02-11T01:30:54.791Z,11.27
2023-02-11T01:33:23.489Z,9.63
2023-02-11T01:35:51.160Z,10.40
2023-02-11T01:38:24.659Z,10.35
2023-02-11T01:40:55.807Z,9.75
2023-02-11T01:43:24.786Z,9.35
2023-02-11T01:45:59.320Z,10.73
2023-02-11T01:48:36.066Z,10.32
2023-02-11T01:51:21.967Z,9.73
2023-02-11T01:54:08.722Z,9.90
2023-02-11T01:56:59.068Z,10.30
2023-02-11T01:59:41.601Z,10.38
2023-02-11T02:02:13.731Z,10.35
2023-02-11T02:04:53.670Z,9.05
2023-02-11T02:07:35.077Z,9.52
2023-02-11T02:12:37.636Z,10.00
2023-02-11T02:15:29.458Z,9.25
2023-02-11T02:18:31.085Z,8.68
2023-02-11T02:24:10.692Z,8.25
2023-02-11T02:26:53.505Z,6.03
2023-02-11T02:30:05.179Z,8.75
2023-02-11T02:32:52.691Z,8.27
2023-02-11T02:35:40.906Z,7.97
2023-02-11T02:38:32.791Z,8.23
2023-02-11T02:41:12.317Z,8.27
2023-02-11T02:43:46.652Z,7.75
2023-02-11T02:46:26.086Z,8.15
2023-02-11T02:48:54.924Z,8.10
2023-02-11T02:51:27.653Z,8.13
2023-02-11T02:54:44.779Z,7.65
2023-02-11T02:58:00.156Z,7.68
2023-02-11T03:00:50.628Z,7.45
2023-02-11T03:03:40.833Z,7.97
2023-02-11T03:06:32.582Z,8.07
2023-02-11T03:09:55.195Z,7.90
2023-02-11T03:12:23.728Z,8.50
2023-02-11T03:14:52.813Z,7.80
2023-02-11T03:17:21.611Z,7.53
2023-02-11T03:19:51.001Z,8.35
2023-02-11T03:22:27.585Z,9.10
2023-02-11T03:24:56.768Z,8.57
2023-02-11T03:27:49.520Z,8.18
2023-02-11T03:30:24.984Z,8.02
2023-02-11T03:33:09.100Z,7.78
2023-02-11T03:35:43.165Z,8.25
2023-02-11T03:38:26.322Z,7.93
2023-02-11T03:40:55.478Z,8.15
2023-02-11T03:43:45.156Z,8.60
2023-02-11T03:46:14.124Z,8.50
2023-02-11T03:48:46.026Z,8.00
2023-02-11T03:51:14.532Z,8.40
2023-02-11T03:53:45.340Z,7.60
2023-02-11T03:56:20.670Z,8.48
2023-02-11T03:58:49.216Z,7.75
2023-02-11T04:01:16.771Z,7.47
2023-02-11T04:03:44.013Z,9.00
2023-02-11T04:06:11.261Z,8.90
2023-02-11T04:08:38.510Z,9.57
2023-02-11T04:11:05.543Z,9.90
2023-02-11T04:13:32.842Z,9.38
2023-02-11T04:15:59.925Z,9.75
2023-02-11T04:18:27.037Z,9.77
2023-02-11T04:20:54.071Z,10.05
2023-02-11T04:23:21.208Z,9.38
2023-02-11T04:25:51.467Z,9.93
2023-02-11T04:28:18.762Z,9.93
2023-02-11T04:30:45.818Z,9.23
2023-02-11T04:33:13.093Z,9.60
2023-02-11T04:35:40.304Z,9.50
2023-02-11T04:38:07.329Z,9.65
2023-02-11T04:40:34.445Z,9.48
2023-02-11T04:43:01.488Z,8.70
2023-02-11T04:45:28.665Z,9.23
2023-02-11T04:47:55.755Z,9.52
2023-02-11T04:50:22.822Z,9.63
2023-02-11T04:52:49.844Z,9.45
2023-02-11T04:55:17.118Z,10.50
2023-02-11T04:57:44.144Z,10.00
2023-02-11T05:00:12.230Z,9.57
2023-02-11T05:02:39.419Z,9.57
2023-02-11T05:05:06.668Z,10.13
2023-02-11T05:07:34.105Z,10.00
2023-02-11T05:10:01.272Z,10.02
2023-02-11T05:12:28.362Z,10.65
2023-02-11T05:14:55.392Z,10.85
2023-02-11T05:17:22.475Z,10.52
2023-02-11T05:19:51.929Z,10.80
2023-02-11T05:22:19.808Z,11.00
2023-02-11T05:24:47.063Z,10.95
2023-02-11T05:27:14.189Z,10.88
2023-02-11T05:29:41.250Z,10.95
2023-02-11T05:32:09.135Z,10.68
2023-02-11T05:34:36.854Z,9.73
2023-02-11T05:37:05.548Z,9.73
2023-02-11T05:39:32.590Z,10.48
2023-02-11T05:42:01.659Z,9.93
2023-02-11T05:44:28.800Z,9.02
2023-02-11T05:46:55.958Z,8.88
2023-02-11T05:49:23.082Z,10.32
2023-02-11T05:51:50.120Z,9.35
2023-02-11T05:54:17.466Z,9.00
2023-02-11T05:56:45.672Z,9.60
2023-02-11T05:59:15.004Z,9.68
2023-02-11T06:01:42.586Z,8.70
2023-02-11T06:04:09.796Z,9.77
2023-02-11T06:06:37.240Z,9.70
2023-02-11T06:09:04.826Z,9.68
2023-02-11T06:11:31.901Z,9.35
2023-02-11T06:13:59.017Z,8.95
2023-02-11T06:16:26.127Z,8.27
2023-02-11T06:18:53.178Z,8.02
2023-02-11T06:21:20.309Z,8.40
2023-02-11T06:23:47.550Z,8.38
2023-02-11T06:26:22.040Z,10.52
2023-02-11T06:28:49.598Z,9.68
2023-02-11T06:31:17.254Z,8.85
2023-02-11T06:33:44.644Z,8.63
2023-02-11T06:36:21.556Z,8.07
2023-02-11T06:38:49.865Z,9.27
2023-02-11T06:41:21.825Z,8.90
2023-02-11T06:43:50.279Z,8.98
2023-02-11T06:46:17.430Z,8.48
2023-02-11T06:48:45.082Z,9.77
2023-02-11T06:51:14.251Z,8.80
2023-02-11T06:53:46.880Z,8.68
2023-02-11T06:56:21.353Z,9.35
2023-02-11T06:58:53.576Z,8.90
2023-02-11T07:01:20.996Z,8.95
2023-02-11T07:03:49.565Z,8.95
2023-02-11T07:06:20.690Z,9.38
2023-02-11T07:08:48.594Z,9.38
2023-02-11T07:11:31.124Z,9.93
2023-02-11T07:14:06.114Z,9.40
2023-02-11T07:16:33.611Z,8.65
2023-02-11T07:19:00.762Z,8.70
2023-02-11T07:21:28.010Z,8.48
2023-02-11T07:23:55.233Z,8.48
2023-02-11T07:26:23.928Z,8.10
2023-02-11T07:28:51.991Z,10.27
2023-02-11T07:31:29.394Z,10.30
2023-02-11T07:34:00.336Z,10.63
2023-02-11T07:36:29.962Z,10.32
2023-02-11T07:38:56.971Z,9.60
2023-02-11T07:41:25.339Z,9.50
2023-02-11T07:43:52.617Z,9.13
2023-02-11T07:46:26.747Z,9.05
2023-02-11T07:48:55.039Z,9.05
2023-02-11T07:51:25.713Z,9.35
2023-02-11T07:53:53.530Z,8.20
2023-02-11T07:56:21.723Z,8.45
2023-02-11T07:58:49.293Z,9.18
2023-02-11T08:01:25.524Z,9.50
2023-02-11T08:03:53.133Z,9.48
2023-02-11T08:06:22.356Z,9.80
2023-02-11T08:08:50.295Z,9.20
2023-02-11T08:11:26.252Z,8.02
2023-02-11T08:13:55.918Z,8.30
2023-02-11T08:16:42.864Z,8.27
2023-02-11T08:19:16.519Z,7.05
2023-02-11T08:21:44.750Z,7.03
2023-02-11T08:24:11.994Z,7.28
2023-02-11T08:26:39.630Z,7.50
2023-02-11T08:29:13.766Z,7.15
2023-02-11T08:31:44.318Z,8.38
2023-02-11T08:34:14.345Z,8.60
2023-02-11T08:36:43.038Z,7.75
2023-02-11T08:39:20.823Z,7.20
2023-02-11T08:41:56.541Z,7.38
2023-02-11T08:44:24.337Z,7.43
2023-02-11T08:46:52.314Z,7.93
2023-02-11T08:49:20.426Z,7.13
2023-02-11T08:51:47.610Z,7.63
2023-02-11T08:54:15.501Z,6.85
2023-02-11T08:56:43.168Z,6.40
2023-02-11T08:59:15.383Z,6.35
2023-02-11T09:01:44.267Z,6.10
2023-02-11T09:04:11.510Z,5.57
2023-02-11T09:06:38.605Z,5.75
2023-02-11T09:09:05.973Z,5.45
2023-02-11T09:11:35.730Z,5.80
2023-02-11T09:14:04.591Z,5.47
2023-02-11T09:16:36.519Z,6.72
2023-02-11T09:19:05.665Z,6.47
2023-02-11T09:21:33.297Z,6.05
2023-02-11T09:24:00.389Z,6.15
2023-02-11T09:26:33.942Z,7.05
2023-02-11T09:29:01.974Z,6.25
2023-02-11T09:31:32.523Z,5.90
2023-02-11T09:34:04.484Z,5.60
2023-02-11T09:36:38.269Z,5.63
2023-02-11T09:39:11.752Z,4.95
2023-02-11T09:42:13.624Z,5.00
2023-02-11T09:44:40.810Z,4.90
2023-02-11T09:47:28.781Z,5.22
2023-02-11T09:50:12.785Z,5.22
2023-02-11T09:53:03.091Z,5.85
2023-02-11T09:55:42.839Z,5.05
2023-02-11T09:58:22.327Z,5.22
2023-02-11T10:01:29.978Z,5.40
2023-02-11T10:04:05.695Z,5.15
2023-02-11T10:06:55.902Z,5.50
2023-02-11T10:10:01.242Z,5.93
2023-02-11T10:12:55.228Z,5.38
2023-02-11T10:15:42.335Z,6.00
2023-02-11T10:18:47.127Z,5.72
2023-02-11T10:21:24.747Z,5.15
2023-02-11T10:23:57.565Z,5.47
2023-02-11T10:26:27.985Z,6.20
2023-02-11T10:28:59.853Z,6.65
2023-02-11T10:31:42.569Z,6.35
2023-02-11T10:34:14.996Z,5.68
2023-02-11T10:36:44.716Z,5.70
2023-02-11T10:39:26.075Z,5.80
2023-02-11T10:42:00.555Z,5.95
2023-02-11T10:44:35.366Z,5.78
2023-02-11T10:47:24.609Z,5.60
2023-02-11T10:49:51.839Z,6.05
2023-02-11T10:52:27.975Z,6.43
2023-02-11T10:55:25.035Z,5.95
2023-02-11T10:58:01.200Z,5.85
2023-02-11T11:00:38.050Z,6.35
2023-02-11T11:03:21.770Z,5.47
2023-02-11T11:06:03.212Z,5.57
2023-02-11T11:08:49.751Z,5.50
2023-02-11T11:11:20.854Z,5.57
2023-02-11T11:13:53.777Z,5.70
2023-02-11T11:16:28.478Z,6.45
2023-02-11T11:19:07.710Z,5.88
2023-02-11T11:21:47.026Z,5.78
2023-02-11T11:24:44.533Z,5.90
2023-02-11T11:27:22.024Z,5.55
2023-02-11T11:29:55.538Z,5.72
2023-02-11T11:32:32.919Z,5.82
2023-02-11T11:35:06.073Z,5.38
2023-02-11T11:37:36.854Z,5.53
2023-02-11T11:40:09.329Z,5.40
2023-02-11T11:42:39.178Z,5.22
2023-02-11T11:45:26.577Z,5.40
2023-02-11T11:48:00.888Z,5.70
2023-02-11T11:50:50.688Z,5.22
2023-02-11T11:53:36.600Z,5.88
2023-02-11T11:56:14.826Z,5.97
2023-02-11T11:58:41.930Z,6.18
2023-02-11T12:01:43.799Z,6.55
2023-02-11T12:04:59.653Z,6.07
2023-02-11T12:07:54.384Z,5.95
2023-02-11T12:10:53.577Z,5.63
2023-02-11T12:13:38.748Z,5.57
2023-02-11T12:16:23.674Z,6.00
2023-02-11T12:19:26.980Z,5.13
2023-02-11T12:22:26.817Z,6.10
2023-02-11T12:25:01.143Z,5.82
2023-02-11T12:27:48.437Z,5.32
2023-02-11T12:30:46.506Z,5.75
2023-02-11T12:33:59.865Z,5.28
2023-02-11T12:37:17.164Z,5.50
2023-02-11T12:40:14.557Z,5.38
2023-02-11T12:43:15.169Z,4.90
2023-02-11T12:46:14.279Z,5.43
2023-02-11T12:49:01.385Z,5.57
2023-02-11T12:52:05.721Z,5.13
2023-02-11T12:54:41.744Z,4.80
2023-02-11T12:57:23.555Z,5.82
2023-02-11T13:00:13.670Z,5.53
2023-02-11T13:02:54.448Z,6.82
2023-02-11T13:05:33.354Z,6.78
2023-02-11T13:08:31.501Z,6.82
2023-02-11T13:11:14.377Z,6.55
2023-02-11T13:14:04.341Z,6.45
2023-02-11T13:16:40.125Z,6.90
2023-02-11T13:19:27.498Z,7.13
2023-02-11T13:22:00.271Z,7.35
2023-02-11T13:25:02.890Z,7.57
2023-02-11T13:27:58.822Z,7.45
2023-02-11T13:30:39.647Z,7.20
2023-02-11T13:33:16.870Z,7.13
2023-02-11T13:36:09.834Z,7.10
2023-02-11T13:38:37.815Z,6.70
2023-02-11T13:41:27.630Z,7.35
2023-02-11T13:44:10.469Z,7.65
2023-02-11T13:46:58.289Z,6.97
2023-02-11T13:49:35.681Z,6.80
2023-02-11T13:52:12.400Z,6.38
2023-02-11T13:54:40.491Z,7.28
2023-02-11T13:57:19.577Z,7.43
2023-02-11T13:59:48.235Z,7.13
2023-02-11T14:02:44.823Z,8.35
2023-02-11T14:05:43.642Z,8.63
2023-02-11T14:08:28.902Z,8.45
2023-02-11T14:11:00.746Z,8.30
2023-02-11T14:16:31.607Z,8.27
2023-02-11T14:19:03.304Z,17.73
2023-02-11T14:21:39.489Z,14.88
2023-02-11T14:24:07.223Z,11.50
2023-02-11T14:26:50.740Z,9.65
2023-02-11T14:29:51.855Z,9.52
2023-02-11T14:32:43.535Z,8.85
2023-02-11T14:35:52.149Z,8.55
2023-02-11T14:38:45.644Z,8.48
2023-02-11T14:41:23.624Z,9.15
2023-02-11T14:43:59.824Z,9.40
2023-02-11T14:46:32.991Z,8.70
2023-02-11T14:49:05.487Z,8.18
2023-02-11T14:51:36.821Z,8.52
2023-02-11T14:54:25.352Z,7.78
2023-02-11T14:57:21.794Z,6.93
2023-02-11T15:00:14.266Z,6.97
2023-02-11T15:02:44.629Z,6.57
2023-02-11T15:05:22.518Z,7.25
2023-02-11T15:07:56.608Z,7.35
2023-02-11T15:10:43.886Z,7.90
2023-02-11T15:13:19.538Z,7.38
2023-02-11T15:15:48.559Z,7.38
2023-02-11T15:18:25.485Z,7.47
2023-02-11T15:20:53.344Z,7.93
2023-02-11T15:23:27.657Z,8.55
2023-02-11T15:25:57.928Z,10.68
2023-02-11T15:28:32.074Z,12.73
2023-02-11T15:31:17.021Z,11.13
2023-02-11T15:33:44.141Z,9.45
2023-02-11T15:36:13.772Z,9.20
2023-02-11T15:38:41.132Z,8.35
2023-02-11T15:41:35.808Z,8.85
2023-02-11T15:44:02.938Z,7.38
2023-02-11T15:46:39.003Z,7.47
2023-02-11T15:49:08.621Z,7.85
2023-02-11T15:51:38.033Z,8.05
2023-02-11T15:54:29.477Z,8.52
2023-02-11T15:57:05.597Z,9.25
2023-02-11T15:59:39.154Z,9.18
2023-02-11T16:02:30.511Z,10.68
2023-02-11T16:05:05.011Z,11.32
2023-02-11T16:08:22.708Z,10.93
2023-02-11T16:11:09.013Z,10.30
2023-02-11T16:13:47.418Z,9.75
2023-02-11T16:16:24.146Z,9.73
2023-02-11T16:19:04.589Z,9.13
2023-02-11T16:21:40.084Z,9.52
2023-02-11T16:24:28.301Z,8.65
2023-02-11T16:27:18.439Z,9.02
2023-02-11T16:29:48.528Z,8.32
2023-02-11T16:32:25.346Z,7.65
2023-02-11T16:34:55.277Z,8.02
2023-02-11T16:37:22.256Z,8.23
2023-02-11T16:39:49.290Z,8.13
2023-02-11T16:42:16.334Z,8.40
2023-02-11T16:44:43.301Z,8.40
2023-02-11T16:47:22.996Z,8.95
2023-02-11T16:49:50.440Z,8.40
2023-02-11T16:52:19.485Z,9.13
2023-02-11T16:54:46.606Z,7.95
2023-02-11T16:57:23.607Z,8.25
2023-02-11T16:59:51.163Z,8.32
2023-02-11T17:02:31.765Z,8.05
2023-02-11T17:05:02.242Z,7.95
2023-02-11T17:07:29.968Z,8.07
2023-02-11T17:09:57.560Z,8.10
2023-02-11T17:12:27.692Z,7.80
2023-02-11T17:14:54.926Z,7.68
2023-02-11T17:17:25.035Z,8.07
2023-02-11T17:19:52.079Z,8.88
2023-02-11T17:22:19.353Z,8.77
2023-02-11T17:24:46.399Z,8.45
2023-02-11T17:27:13.792Z,8.23
2023-02-11T17:29:41.145Z,8.63
2023-02-11T17:32:08.265Z,9.13
2023-02-11T17:34:35.362Z,9.98
2023-02-11T17:37:08.950Z,10.35
2023-02-11T17:39:37.943Z,10.25
2023-02-11T17:42:06.232Z,10.13
2023-02-11T17:44:34.246Z,9.18
2023-02-11T17:47:01.321Z,9.00
2023-02-11T17:49:28.517Z,8.77
2023-02-11T17:51:55.600Z,8.50
2023-02-11T17:54:22.794Z,8.05
2023-02-11T17:56:50.876Z,7.45
2023-02-11T17:59:18.079Z,8.18
2023-02-11T18:01:45.220Z,7.32
2023-02-11T18:04:18.875Z,8.60
2023-02-11T18:06:46.993Z,7.82
2023-02-11T18:09:14.275Z,8.10
2023-02-11T18:11:42.298Z,9.52
2023-02-11T18:14:10.675Z,10.80
2023-02-11T18:16:39.836Z,10.45
2023-02-11T18:19:07.762Z,9.73
2023-02-11T18:21:35.427Z,8.73
2023-02-11T18:24:06.552Z,9.60
2023-02-11T18:26:34.753Z,9.02
2023-02-11T18:29:03.882Z,8.82
2023-02-11T18:31:31.562Z,9.13
2023-02-11T18:33:58.630Z,9.82
2023-02-11T18:36:25.775Z,9.00
2023-02-11T18:38:54.343Z,8.30
2023-02-11T18:41:21.801Z,9.25
2023-02-11T18:43:48.993Z,9.50
2023-02-11T18:46:16.705Z,8.75
2023-02-11T18:48:45.073Z,8.07
2023-02-11T18:51:20.677Z,9.52
2023-02-11T18:53:47.765Z,10.23
2023-02-11T18:56:19.027Z,10.40
2023-02-11T18:58:48.198Z,10.75
2023-02-11T19:01:26.774Z,9.82
2023-02-11T19:03:56.437Z,9.57
2023-02-11T19:06:27.533Z,9.63
2023-02-11T19:08:59.566Z,9.48
2023-02-11T19:11:47.005Z,9.00
2023-02-11T19:14:36.292Z,8.43
2023-02-11T19:17:08.423Z,7.70
2023-02-11T19:19:36.738Z,8.25
2023-02-11T19:22:08.499Z,7.63
2023-02-11T19:24:37.656Z,7.72
2023-02-11T19:27:05.863Z,7.75
2023-02-11T19:29:35.367Z,8.52
2023-02-11T19:32:05.930Z,7.53
2023-02-11T19:34:33.500Z,8.25
2023-02-11T19:37:01.741Z,8.32
2023-02-11T19:39:28.848Z,8.30
2023-02-11T19:41:55.915Z,8.10
2023-02-11T19:44:23.015Z,8.25
2023-02-11T19:46:52.887Z,8.10
2023-02-11T19:49:23.378Z,8.93
2023-02-11T19:51:51.890Z,8.98
2023-02-11T19:54:20.349Z,8.75
2023-02-11T19:56:48.773Z,8.73
2023-02-11T19:59:16.341Z,8.38
2023-02-11T20:01:44.514Z,8.43
2023-02-11T20:04:13.261Z,9.70
2023-02-11T20:06:43.826Z,9.55
2023-02-11T20:09:14.703Z,9.43
2023-02-11T20:11:42.141Z,10.03
2023-02-11T20:14:11.535Z,10.82
2023-02-11T20:16:47.986Z,10.90
2023-02-11T20:19:22.099Z,9.68
2023-02-11T20:21:53.129Z,10.25
2023-02-11T20:24:20.883Z,10.05
2023-02-11T20:26:48.914Z,9.15
2023-02-11T20:29:19.156Z,9.45
2023-02-11T20:31:46.632Z,10.43
2023-02-11T20:34:13.831Z,9.98
2023-02-11T20:36:41.190Z,8.80
2023-02-11T20:39:08.899Z,8.05
2023-02-11T20:41:39.924Z,9.02
2023-02-11T20:44:08.769Z,9.93
2023-02-11T20:46:40.361Z,8.85
2023-02-11T20:51:36.962Z,9.00
2023-02-11T20:54:06.145Z,8.70
2023-02-11T20:56:36.783Z,11.52
2023-02-11T20:59:05.131Z,11.65
2023-02-11T21:01:42.501Z,11.50
2023-02-11T21:04:30.574Z,18.95
2023-02-11T21:07:01.272Z,18.38
2023-02-11T21:09:32.212Z,16.63
2023-02-11T21:12:00.490Z,14.57
2023-02-11T21:14:29.075Z,13.18
2023-02-11T21:16:56.418Z,13.93
2023-02-11T21:19:23.815Z,12.00
2023-02-11T21:21:51.247Z,12.35
2023-02-11T21:24:18.324Z,12.50
2023-02-11T21:26:45.616Z,11.80
2023-02-11T21:29:12.819Z,10.25
2023-02-11T21:31:40.396Z,8.95
2023-02-11T21:34:08.296Z,8.95
2023-02-11T21:36:35.574Z,9.13
2023-02-11T21:39:04.005Z,9.38
2023-02-11T21:41:31.339Z,9.98
2023-02-11T21:43:58.574Z,9.80
2023-02-11T21:46:26.372Z,10.73
2023-02-11T21:48:53.612Z,10.38
2023-02-11T21:51:26.146Z,9.77
2023-02-11T21:53:59.628Z,10.52
2023-02-11T21:56:28.262Z,10.85
2023-02-11T21:58:57.712Z,12.90
2023-02-11T22:01:28.920Z,12.32
2023-02-11T22:03:56.237Z,11.25
2023-02-11T22:06:27.111Z,11.68
2023-02-11T22:08:55.248Z,11.20
2023-02-11T22:11:23.484Z,10.77
2023-02-11T22:13:55.229Z,10.18
2023-02-11T22:18:50.342Z,8.15
2023-02-11T22:21:21.171Z,8.70
2023-02-11T22:23:49.310Z,9.47
2023-02-11T22:26:21.028Z,8.98
2023-02-11T22:31:24.243Z,8.10
2023-02-11T22:33:51.907Z,8.25
2023-02-11T22:36:28.523Z,7.97
2023-02-11T22:38:56.492Z,8.25
2023-02-11T22:41:23.824Z,8.80
2023-02-11T22:43:50.951Z,8.70
2023-02-11T22:46:20.111Z,9.50
2023-02-11T22:48:48.019Z,9.00
2023-02-11T22:51:22.327Z,9.02
2023-02-11T22:53:56.520Z,9.52
2023-02-11T22:56:25.015Z,9.02
2023-02-11T22:58:53.741Z,8.70
2023-02-11T23:01:20.934Z,8.85
2023-02-11T23:03:48.301Z,8.60
2023-02-11T23:06:15.806Z,9.40
2023-02-11T23:08:43.441Z,9.15
2023-02-11T23:11:18.089Z,8.80
2023-02-11T23:13:46.862Z,8.95
2023-02-11T23:16:21.320Z,7.85
2023-02-11T23:18:49.684Z,8.68
2023-02-11T23:21:24.964Z,7.88
2023-02-11T23:24:02.148Z,9.23
2023-02-11T23:26:30.336Z,8.63
2023-02-11T23:28:59.481Z,8.95
2023-02-11T23:31:38.041Z,8.98
2023-02-11T23:34:06.895Z,8.40
2023-02-11T23:36:34.742Z,8.98
2023-02-11T23:39:02.695Z,8.85
2023-02-11T23:41:29.852Z,8.40
2023-02-11T23:43:58.133Z,9.10
2023-02-11T23:46:27.144Z,8.25
2023-02-11T23:48:54.483Z,8.68
2023-02-11T23:51:22.274Z,8.82
2023-02-11T23:53:50.433Z,8.63
2023-02-11T23:56:21.181Z,7.72
2023-02-11T23:58:50.252Z,8.57
